createdAt,value
2022-12-11T00:01:08.947Z,99545.19
2022-12-11T00:03:58.303Z,99543.16
2022-12-11T00:06:28.293Z,99539.47
2022-12-11T00:08:57.605Z,99540.79
2022-12-11T00:11:27.064Z,99539.77
2022-12-11T00:13:57.150Z,99541.27
2022-12-11T00:16:27.240Z,99540.20
2022-12-11T00:18:56.787Z,99543.71
2022-12-11T00:21:25.269Z,99545.77
2022-12-11T00:23:54.194Z,99545.88
2022-12-11T00:26:22.778Z,99548.02
2022-12-11T00:28:57.546Z,99549.30
2022-12-11T00:31:26.861Z,99547.41
2022-12-11T00:33:56.931Z,99541.94
2022-12-11T00:36:27.671Z,99538.99
2022-12-11T00:38:56.778Z,99537.46
2022-12-11T00:41:26.026Z,99536.14
2022-12-11T00:43:56.285Z,99534.53
2022-12-11T00:46:26.886Z,99540.02
2022-12-11T00:48:56.800Z,99536.61
2022-12-11T00:51:26.107Z,99538.41
2022-12-11T00:53:55.558Z,99535.77
2022-12-11T00:56:25.651Z,99531.42
2022-12-11T00:58:55.235Z,99530.62
2022-12-11T05:00:42.328Z,99422.48
2022-12-11T05:03:12.204Z,99423.02
2022-12-11T05:05:40.229Z,99424.05
2022-12-11T05:08:08.767Z,99421.30
2022-12-11T05:10:37.638Z,99419.77
2022-12-11T05:13:06.945Z,99423.47
2022-12-11T05:15:35.966Z,99424.95
2022-12-11T05:18:05.090Z,99434.02
2022-12-11T05:20:34.163Z,99436.00
2022-12-11T05:23:02.427Z,99438.31
2022-12-11T05:25:31.251Z,99433.11
2022-12-11T05:28:00.725Z,99436.19
2022-12-11T05:30:29.803Z,99438.21
2022-12-11T05:32:59.233Z,99434.75
2022-12-11T05:35:28.219Z,99435.46
2022-12-11T05:37:58.875Z,99438.78
2022-12-11T05:40:27.937Z,99435.17
2022-12-11T05:42:57.083Z,99430.25
2022-12-11T05:45:26.538Z,99434.80
2022-12-11T05:47:56.778Z,99432.86
2022-12-11T05:50:25.996Z,99426.67
2022-12-11T05:52:55.119Z,99422.14
2022-12-11T05:55:24.159Z,99422.30
2022-12-11T05:57:53.139Z,99416.64
2022-12-11T06:00:23.629Z,99419.45
2022-12-11T06:02:52.989Z,99414.63
2022-12-11T06:05:22.210Z,99414.20
2022-12-11T06:07:51.215Z,99412.06
2022-12-11T06:10:20.376Z,99409.27
2022-12-11T06:12:49.297Z,99407.72
2022-12-11T06:15:17.582Z,99408.27
2022-12-11T06:17:45.860Z,99403.83
2022-12-11T06:20:14.235Z,99406.13
2022-12-11T06:22:42.593Z,99398.02
2022-12-11T06:25:11.794Z,99395.33
2022-12-11T06:27:41.118Z,99391.33
2022-12-11T06:30:11.843Z,99391.54
2022-12-11T06:32:40.698Z,99396.05
2022-12-11T06:35:10.188Z,99392.02
2022-12-11T06:37:41.267Z,99387.18
2022-12-11T06:40:13.288Z,99384.06
2022-12-11T06:42:42.361Z,99390.29
2022-12-11T06:45:11.965Z,99388.27
2022-12-11T06:47:42.521Z,99394.01
2022-12-11T06:50:12.097Z,99390.56
2022-12-11T06:52:41.250Z,99387.96
2022-12-11T06:55:13.071Z,99387.50
2022-12-11T06:57:42.272Z,99386.89
2022-12-11T07:00:11.837Z,99383.98
2022-12-11T07:02:40.229Z,99384.63
2022-12-11T07:05:09.583Z,99381.72
2022-12-11T07:07:39.180Z,99382.16
2022-12-11T07:10:08.991Z,99382.39
2022-12-11T07:12:37.804Z,99378.00
2022-12-11T07:15:07.987Z,99380.84
2022-12-11T07:17:37.832Z,99379.91
2022-12-11T07:20:07.613Z,99377.46
2022-12-11T07:22:41.633Z,99379.77
2022-12-11T07:25:15.780Z,99380.40
2022-12-11T07:27:44.762Z,99376.05
2022-12-11T07:30:14.593Z,99370.08
2022-12-11T07:32:43.580Z,99375.90
2022-12-11T07:35:13.883Z,99376.67
2022-12-11T07:37:43.174Z,99376.66
2022-12-11T07:40:11.880Z,99377.32
2022-12-11T07:42:46.327Z,99383.53
2022-12-11T07:45:16.064Z,99383.21
2022-12-11T08:11:28.882Z,99397.11
2022-12-11T08:13:59.530Z,99395.06
2022-12-11T08:16:28.731Z,99398.49
2022-12-11T08:18:58.012Z,99394.86
2022-12-11T08:21:28.568Z,99393.92
2022-12-11T08:23:58.374Z,99393.73
2022-12-11T08:26:32.218Z,99388.90
2022-12-11T08:29:02.515Z,99386.96
2022-12-11T08:31:31.687Z,99387.70
2022-12-11T08:33:59.882Z,99384.48
2022-12-11T08:36:29.294Z,99380.31
2022-12-11T08:38:58.205Z,99380.82
2022-12-11T08:41:28.896Z,99377.58
2022-12-11T08:44:02.551Z,99373.50
2022-12-11T08:46:33.434Z,99373.16
2022-12-11T08:49:01.643Z,99375.21
2022-12-11T08:51:32.334Z,99376.25
2022-12-11T08:54:01.933Z,99375.36
2022-12-11T08:56:31.512Z,99375.55
2022-12-11T08:59:01.829Z,99371.30
2022-12-11T09:01:30.360Z,99365.13
2022-12-11T09:03:58.953Z,99359.80
2022-12-11T09:06:30.493Z,99350.61
2022-12-11T09:09:01.179Z,99349.56
2022-12-11T09:11:32.826Z,99345.27
2022-12-11T10:49:28.772Z,99240.61
2022-12-11T10:52:02.053Z,99243.01
2022-12-11T10:54:36.144Z,99243.19
2022-12-11T10:57:08.709Z,99237.38
2022-12-11T10:59:50.179Z,99233.38
2022-12-11T11:02:27.527Z,99225.45
2022-12-11T11:04:59.471Z,99215.08
2022-12-11T11:07:31.938Z,99211.14
2022-12-11T11:10:15.919Z,99204.98
2022-12-11T11:12:48.416Z,99207.48
2022-12-11T11:15:26.147Z,99209.31
2022-12-11T11:17:58.279Z,99205.91
2022-12-11T11:20:30.371Z,99203.64
2022-12-11T11:23:04.841Z,99201.88
2022-12-11T11:25:33.871Z,99199.61
2022-12-11T11:28:09.573Z,99199.46
2022-12-11T11:30:41.493Z,99193.34
2022-12-11T11:33:21.905Z,99187.58
2022-12-11T11:36:06.774Z,99188.82
2022-12-11T11:38:45.493Z,99188.86
2022-12-11T11:41:25.067Z,99185.23
2022-12-11T11:43:58.632Z,99183.91
2022-12-11T11:46:27.549Z,99187.31
2022-12-11T11:49:05.186Z,99179.48
2022-12-11T11:52:15.459Z,99174.15
2022-12-11T11:54:53.163Z,99169.73
2022-12-11T11:57:32.795Z,99169.11
2022-12-11T12:00:17.823Z,99165.52
2022-12-11T12:02:49.777Z,99164.64
2022-12-11T12:05:39.965Z,99166.95
2022-12-11T12:08:22.909Z,99168.78
2022-12-11T12:10:54.674Z,99162.63
2022-12-11T12:13:50.730Z,99162.15
2022-12-11T12:16:53.043Z,99156.60
2022-12-11T12:19:47.768Z,99148.95
2022-12-11T12:22:47.841Z,99145.06
2022-12-11T12:25:24.831Z,99136.77
2022-12-11T12:28:31.597Z,99132.31
2022-12-11T12:31:06.133Z,99133.71
2022-12-11T12:33:40.267Z,99128.06
2022-12-11T12:36:34.831Z,99128.41
2022-12-11T12:39:18.592Z,99126.96
2022-12-11T12:41:54.134Z,99121.84
2022-12-11T12:44:24.951Z,99121.22
2022-12-11T12:47:14.338Z,99120.50
2022-12-11T12:49:49.483Z,99119.36
2022-12-11T12:52:29.805Z,99122.77
2022-12-11T12:55:19.694Z,99117.46
2022-12-11T12:57:51.514Z,99117.78
2022-12-11T13:00:43.330Z,99114.21
2022-12-11T13:03:21.210Z,99112.59
2022-12-11T13:06:10.839Z,99108.82
2022-12-11T13:08:52.338Z,99105.59
2022-12-11T13:11:31.474Z,99107.34
2022-12-11T13:14:06.758Z,99105.86
2022-12-11T13:16:39.874Z,99105.98
2022-12-11T13:19:27.164Z,99109.08
2022-12-11T13:22:17.042Z,99108.85
2022-12-11T13:25:24.196Z,99105.06
2022-12-11T13:27:53.631Z,99104.63
2022-12-11T13:30:25.044Z,99102.23
2022-12-11T13:33:16.276Z,99096.75
2022-12-11T13:35:46.714Z,99095.19
2022-12-11T13:38:21.624Z,99088.02
2022-12-11T13:40:59.585Z,99085.13
2022-12-11T13:43:31.469Z,99083.66
2022-12-11T13:46:03.210Z,99082.25
2022-12-11T13:48:41.636Z,99082.37
2022-12-11T13:51:23.227Z,99078.16
2022-12-11T13:54:17.808Z,99077.00
2022-12-11T13:56:58.834Z,99073.97
2022-12-11T13:59:33.957Z,99066.70
2022-12-11T14:02:40.666Z,99066.15
2022-12-11T14:05:13.206Z,99062.48
2022-12-11T14:07:49.644Z,99066.34
2022-12-11T14:10:24.955Z,99066.62
2022-12-11T14:13:07.008Z,99068.45
2022-12-11T14:15:39.004Z,99064.20
2022-12-11T14:18:08.319Z,99061.71
2022-12-11T14:20:37.369Z,99060.98
2022-12-11T14:23:23.088Z,99060.85
2022-12-11T14:26:00.293Z,99055.42
2022-12-11T14:28:37.539Z,99059.81
2022-12-11T14:31:07.502Z,99055.99
2022-12-11T14:33:45.107Z,99056.23
2022-12-11T14:36:16.445Z,99057.36
2022-12-11T14:38:53.853Z,99059.89
2022-12-11T14:41:36.414Z,99061.14
2022-12-11T14:44:08.693Z,99067.23
2022-12-11T14:47:03.305Z,99065.19
2022-12-11T14:50:14.428Z,99066.21
2022-12-11T14:52:52.158Z,99057.73
2022-12-11T14:55:27.949Z,99052.86
2022-12-11T14:58:15.622Z,99046.70
2022-12-11T15:00:45.499Z,99047.55
2022-12-11T15:03:17.983Z,99047.09
2022-12-11T15:05:58.660Z,99047.65
2022-12-11T15:08:37.499Z,99048.42
2022-12-11T15:11:17.345Z,99048.20
2022-12-11T15:14:01.803Z,99047.06
2022-12-11T15:16:38.785Z,99044.84
2022-12-11T15:19:18.208Z,99039.64
2022-12-11T15:21:46.633Z,99038.37
2022-12-11T15:24:31.199Z,99037.11
2022-12-11T15:27:01.905Z,99034.71
2022-12-11T15:29:36.122Z,99037.00
2022-12-11T15:32:14.990Z,99034.77
2022-12-11T15:34:56.477Z,99032.51
2022-12-11T15:37:37.197Z,99037.21
2022-12-11T15:40:07.705Z,99035.16
2022-12-11T15:42:40.696Z,99039.73
2022-12-11T15:45:18.709Z,99045.34
2022-12-11T15:47:49.021Z,99043.16
2022-12-11T15:50:23.568Z,99045.85
2022-12-11T15:52:57.359Z,99048.20
2022-12-11T15:55:34.419Z,99048.05
2022-12-11T15:58:08.130Z,99041.65
2022-12-11T16:00:37.322Z,99042.40
2022-12-11T16:03:06.378Z,99039.24
2022-12-11T16:05:35.847Z,99040.04
2022-12-11T16:08:05.344Z,99038.70
2022-12-11T16:10:34.563Z,99039.10
2022-12-11T16:13:03.843Z,99039.13
2022-12-11T16:15:32.995Z,99036.67
2022-12-11T16:18:10.858Z,99041.95
2022-12-11T16:20:41.374Z,99040.54
2022-12-11T16:23:10.344Z,99036.66
2022-12-11T16:25:41.863Z,99030.64
2022-12-11T16:28:14.633Z,99025.48
2022-12-11T16:30:45.245Z,99021.41
2022-12-11T16:33:15.046Z,99021.79
2022-12-11T16:35:44.813Z,99023.33
2022-12-11T16:38:14.049Z,99023.26
2022-12-11T16:40:43.324Z,99021.67
2022-12-11T16:43:12.832Z,99023.52
2022-12-11T16:45:43.799Z,99023.77
2022-12-11T16:48:12.875Z,99022.82
2022-12-11T16:50:41.465Z,99020.36
2022-12-11T16:53:10.864Z,99017.70
2022-12-11T16:55:40.560Z,99017.54
2022-12-11T16:58:10.028Z,99019.19
2022-12-11T17:00:39.340Z,99021.59
2022-12-11T17:03:11.233Z,99022.98
2022-12-11T17:05:41.653Z,99026.23
2022-12-11T17:12:44.402Z,99022.25
2022-12-11T17:15:13.816Z,99021.89
2022-12-11T17:17:45.564Z,99020.73
2022-12-11T17:20:15.909Z,99016.59
2022-12-11T17:22:46.539Z,99011.86
2022-12-11T17:25:19.957Z,99011.51
2022-12-11T17:27:50.441Z,99007.80
2022-12-11T17:30:19.803Z,99007.16
2022-12-11T17:32:49.908Z,99007.21
2022-12-11T17:35:19.567Z,98997.84
2022-12-11T17:37:49.165Z,98991.77
2022-12-11T17:40:19.257Z,98984.98
2022-12-11T17:42:48.636Z,98984.33
2022-12-11T17:45:18.194Z,98982.69
2022-12-11T17:47:46.719Z,98982.42
2022-12-11T17:50:15.800Z,98975.73
2022-12-11T17:52:44.467Z,98973.66
2022-12-11T17:55:14.318Z,98974.90
2022-12-11T17:57:43.885Z,98974.95
2022-12-11T18:00:13.576Z,98977.55
2022-12-11T18:02:43.046Z,98976.81
2022-12-11T18:05:12.942Z,98973.77
2022-12-11T18:07:42.387Z,98971.14
2022-12-11T18:10:11.474Z,98969.10
2022-12-11T18:12:40.596Z,98964.86
2022-12-11T18:15:11.236Z,98963.55
2022-12-11T18:17:40.524Z,98969.91
2022-12-11T18:20:12.903Z,98972.27
2022-12-11T18:22:41.504Z,98971.52
2022-12-11T18:25:12.721Z,98970.30
2022-12-11T18:27:41.421Z,98962.30
2022-12-11T18:30:12.905Z,98959.86
2022-12-11T18:32:42.681Z,98958.58
2022-12-11T18:35:11.944Z,98960.41
2022-12-11T18:37:41.814Z,98955.14
2022-12-11T18:40:12.366Z,98952.31
2022-12-11T18:42:40.711Z,98954.79
2022-12-11T18:45:10.412Z,98955.19
2022-12-11T18:47:39.932Z,98956.77
2022-12-11T18:50:09.019Z,98957.52
2022-12-11T18:52:37.634Z,98957.73
2022-12-11T18:55:07.261Z,98958.23
2022-12-11T18:57:35.730Z,98959.56
2022-12-11T19:00:07.596Z,98960.59
2022-12-11T19:02:36.562Z,98958.06
2022-12-11T19:05:05.858Z,98956.98
2022-12-11T19:07:35.730Z,98955.65
2022-12-11T19:10:07.217Z,98956.40
2022-12-11T19:12:39.597Z,98956.87
2022-12-11T19:15:08.602Z,98955.10
2022-12-11T19:17:37.343Z,98955.52
2022-12-11T19:20:32.225Z,98957.97
2022-12-11T19:22:56.301Z,98952.58
2022-12-11T19:25:25.788Z,98949.95
2022-12-11T19:27:57.732Z,98945.30
2022-12-11T19:30:26.845Z,98945.34
2022-12-11T19:32:56.152Z,98943.57
2022-12-11T19:35:24.682Z,98945.07
2022-12-11T19:37:55.088Z,98948.65
2022-12-11T19:40:26.869Z,98949.77
2022-12-11T19:42:58.464Z,98949.41
2022-12-11T19:45:27.499Z,98955.41
2022-12-11T19:47:56.058Z,98949.78
2022-12-11T19:50:27.021Z,98946.98
2022-12-11T19:52:56.130Z,98942.58
2022-12-11T19:55:25.625Z,98937.83
2022-12-11T19:57:57.471Z,98937.96
2022-12-11T20:00:30.529Z,98939.68
2022-12-11T20:03:03.983Z,98934.83
2022-12-11T20:05:35.528Z,98933.73
2022-12-11T20:08:42.480Z,98934.25
2022-12-11T20:11:15.845Z,98936.77
2022-12-11T20:13:49.803Z,98936.54
2022-12-11T20:16:39.200Z,98935.07
2022-12-11T20:19:17.065Z,98935.02
2022-12-11T20:21:48.607Z,98937.09
2022-12-11T20:24:17.265Z,98937.88
2022-12-11T20:26:47.329Z,98935.02
2022-12-11T20:29:16.215Z,98939.19
2022-12-11T20:31:44.645Z,98940.92
2022-12-11T20:34:13.067Z,98938.85
2022-12-11T20:36:41.047Z,98937.13
2022-12-11T20:39:10.454Z,98936.27
2022-12-11T20:41:39.278Z,98934.67
2022-12-11T20:44:08.251Z,98936.39
2022-12-11T20:46:37.230Z,98932.14
2022-12-11T20:49:13.438Z,98928.78
2022-12-11T20:51:42.805Z,98926.55
2022-12-11T20:54:11.602Z,98920.23
2022-12-11T20:56:40.699Z,98916.27
2022-12-11T20:59:11.398Z,98909.66
2022-12-11T21:01:40.673Z,98903.24
2022-12-11T21:04:09.280Z,98903.58
2022-12-11T21:06:40.937Z,98902.62
2022-12-11T21:09:14.432Z,98892.95
2022-12-11T21:11:43.231Z,98891.35
2022-12-11T21:14:11.716Z,98888.56
2022-12-11T21:16:40.327Z,98886.21
2022-12-11T21:19:15.099Z,98880.02
2022-12-11T21:21:46.020Z,98885.14
2022-12-11T21:24:27.078Z,98885.95
2022-12-11T21:26:58.137Z,98889.63
2022-12-11T21:29:27.760Z,98887.41
2022-12-11T21:31:56.984Z,98885.63
2022-12-11T21:34:27.100Z,98880.48
2022-12-11T21:36:57.414Z,98880.70
2022-12-11T21:39:29.069Z,98877.94
2022-12-11T21:41:58.373Z,98880.86
2022-12-11T21:47:16.727Z,98885.38
2022-12-11T21:49:44.847Z,98881.47
2022-12-11T21:52:13.958Z,98878.25
2022-12-11T21:54:42.796Z,98874.48
2022-12-11T21:57:11.115Z,98872.34
2022-12-11T21:59:39.580Z,98872.59
2022-12-11T22:02:08.422Z,98874.67
2022-12-11T22:04:38.440Z,98871.39
2022-12-11T22:07:06.729Z,98872.33
2022-12-11T22:09:35.735Z,98875.95
2022-12-11T22:12:04.745Z,98872.98
2022-12-11T22:14:35.053Z,98870.73
2022-12-11T22:17:04.173Z,98870.07
2022-12-11T22:19:33.192Z,98866.99
2022-12-11T22:22:02.738Z,98867.02
2022-12-11T22:24:31.701Z,98865.51
2022-12-11T22:27:01.593Z,98863.39
2022-12-11T22:29:31.356Z,98856.42
2022-12-11T22:32:00.199Z,98856.11
2022-12-11T22:34:29.634Z,98854.11
2022-12-11T22:36:58.811Z,98851.90
2022-12-11T22:39:27.690Z,98852.86
2022-12-11T22:41:56.693Z,98854.02
2022-12-11T22:44:26.225Z,98849.84
2022-12-11T22:46:55.373Z,98851.13
2022-12-11T22:49:24.500Z,98845.73
2022-12-11T22:51:53.429Z,98842.52
2022-12-11T22:54:22.413Z,98837.46
2022-12-11T22:56:51.640Z,98838.27
2022-12-11T22:59:20.582Z,98839.41
2022-12-11T23:01:49.751Z,98839.80
2022-12-11T23:04:18.847Z,98837.94
2022-12-11T23:06:47.902Z,98835.20
2022-12-11T23:09:17.284Z,98832.23
2022-12-11T23:11:46.074Z,98831.52
2022-12-11T23:14:17.313Z,98828.73
2022-12-11T23:16:46.257Z,98831.69
2022-12-11T23:19:14.890Z,98834.53
2022-12-11T23:21:44.055Z,98830.88
2022-12-11T23:24:13.532Z,98829.61
2022-12-11T23:26:42.251Z,98825.32
2022-12-11T23:29:10.546Z,98825.79
2022-12-11T23:31:39.016Z,98827.35
2022-12-11T23:34:07.868Z,98828.63
2022-12-11T23:36:36.348Z,98828.71
2022-12-11T23:39:05.685Z,98824.15
2022-12-11T23:41:34.385Z,98829.43
2022-12-11T23:44:03.216Z,98828.57
2022-12-11T23:46:31.930Z,98830.23
2022-12-11T23:49:01.153Z,98833.48
2022-12-11T23:51:30.483Z,98831.88
2022-12-11T23:53:58.820Z,98833.32
2022-12-11T23:56:32.922Z,98834.29
2022-12-11T23:59:01.857Z,98834.47
